San Fernando Past Weather

Last 30 Days

 
High: 67ºf @1:57 AM    Low: 63ºf @4:57 AM     Approx. Precipitation / Rain Total: in.
Time (PDT)Temp. (ºf)Humidity (%)Dew Point (ºf)Barometer (inHG)Wind Speed (mph)Wind DirectionWind Gust (mph)1hr. Precip / Rain Total (in.)Snow Depth
6:57 AM645447.02-1.74n4.34--
5:57 AM635546.57-0.87ene4.34--
4:57 AM635647.05-3.48ese5.21--
3:57 AM655246.94-4.34ese5.21--
2:57 AM655246.94-0.87nne5.21--
1:57 AM674846.65-4.34n6.95--
12:57 AM675047.74-6.95ese8.69--
High: 82ºf @4:57 PM    Low: 69ºf @11:57 PM     Approx. Precipitation / Rain Total: in.
Time (PDT)Temp. (ºf)Humidity (%)Dew Point (ºf)Barometer (inHG)Wind Speed (mph)Wind DirectionWind Gust (mph)1hr. Precip / Rain Total (in.)Snow Depth
11:57 PM694848.48-2.61e6.08--
10:57 PM695049.58-1.74n2.61--
9:57 PM714649.16---4.34--
8:57 PM714749.74-1.74wsw5.21--
7:57 PM734449.78-2.61wsw6.08--
6:57 PM763747.83-3.48wnw8.69--
5:57 PM803348.29-6.95wsw14.77--
4:57 PM823047.48-10.43ssw15.64--
1:57 AM715051.41-5.21ese9.56--
12:57 AM744551.29-1.74nnw2.61--
High: 94ºf @4:57 PM    Low: 70ºf @5:57 AM     Approx. Precipitation / Rain Total: in.
Time (PDT)Temp. (ºf)Humidity (%)Dew Point (ºf)Barometer (inHG)Wind Speed (mph)Wind DirectionWind Gust (mph)1hr. Precip / Rain Total (in.)Snow Depth
11:57 PM744450.69-2.61nnw3.48--
10:57 PM764251.23-0.87wsw4.34--
9:57 PM783951.01-2.61sse6.08--
8:57 PM793649.74-4.34n5.21--
7:57 PM813449.96-5.21nnw11.3--
6:57 PM843150.08-8.69w18.25--
5:57 PM883052.64-10.43wsw18.25--
4:57 PM942653.84-10.43sw17.38--
9:57 AM832846.51-2.61sw4.34--
8:57 AM783144.89-1.74ssw3.48--
7:57 AM733644.45-2.61ese4.34--
6:57 AM713743.4-0.87ne6.95--
5:57 AM703742.52-2.61ne6.08--
4:57 AM723643.57-0.87ene6.08--
3:57 AM713743.4-1.74ese4.34--
2:57 AM733644.45---5.21--
1:57 AM733543.72-3.48ese5.21--
12:57 AM753444.71-0.87nne2.61--
High: 98ºf @1:57 PM    Low: 68ºf @3:57 AM     Approx. Precipitation / Rain Total: in.
Time (PDT)Temp. (ºf)Humidity (%)Dew Point (ºf)Barometer (inHG)Wind Speed (mph)Wind DirectionWind Gust (mph)1hr. Precip / Rain Total (in.)Snow Depth
11:57 PM773244.86-2.61nne4.34--
10:57 PM783144.89-1.74ese3.48--
9:57 PM793044.9-0.87ese4.34--
8:57 PM822643.71-2.61wnw6.95--
7:57 PM832644.55-5.21nw9.56--
6:57 PM872546.89-6.95wsw13.03--
5:57 PM942148.07-7.82sw14.77--
4:57 PM971643.32-7.82s18.25--
3:57 PM971439.86-11.3sse21.72--
2:57 PM971337.96-11.3s19.99--
1:57 PM981338.74-10.43s20.86--
12:57 PM961439.08-11.3ssw18.25--
11:57 AM951234.4-6.08nw11.3--
10:57 AM891738.49-3.48sw6.95--
9:57 AM812541.84-3.48sw5.21--
8:57 AM773547.23-1.74ssw2.61--
7:57 AM734147.89---4.34--
6:57 AM684847.57-1.74nne5.21--
5:57 AM695250.63-2.61s6.08--
3:57 AM685249.71---3.48--
2:57 AM705754.05-2.61ne3.48--
1:57 AM696054.53-0.87ese4.34--
12:57 AM696456.3-0.87wsw3.48--
High: 95ºf @3:57 PM    Low: 61ºf @6:57 AM     Approx. Precipitation / Rain Total: in.
Time (PDT)Temp. (ºf)Humidity (%)Dew Point (ºf)Barometer (inHG)Wind Speed (mph)Wind DirectionWind Gust (mph)1hr. Precip / Rain Total (in.)Snow Depth
11:57 PM706356.81-0.87e2.61--
9:57 PM735857.33-3.48n6.08--
8:57 PM755658.22-3.48nnw5.21--
7:57 PM775157.47-1.74ssw13.03--
6:57 PM823753.13-9.56sw13.9--
5:57 PM882951.72-9.56s14.77--
4:57 PM922247.66-10.43s14.77--
3:57 PM951336.41-7.82e17.38--
2:57 PM951336.41-9.56e21.72--
1:57 PM931334.86-11.3ne23.46--
12:57 PM921639.34-11.3ne27.81--
11:57 AM881737.69-14.77nne31.28--
10:57 AM851532.16-20.86nne35.63--
9:57 AM773849.43-1.74w3.48--
8:57 AM704547.67-0.87sw3.48--
7:57 AM655246.94---5.21--
6:57 AM615645.19-6.08ese7.82--
5:57 AM635546.57-0.87sse6.08--
4:57 AM645547.5-1.74ne6.08--
3:57 AM645547.5-3.48ne6.08--
2:57 AM636249.77-6.08e7.82--
1:57 AM646150.28-3.48ese6.95--
12:57 AM655749.39-3.48nne6.08--
High: 87ºf @3:57 PM    Low: 57ºf @4:57 AM     Approx. Precipitation / Rain Total: in.
Time (PDT)Temp. (ºf)Humidity (%)Dew Point (ºf)Barometer (inHG)Wind Speed (mph)Wind DirectionWind Gust (mph)1hr. Precip / Rain Total (in.)Snow Depth
11:57 PM685551.22-7.82ne10.43--
10:57 PM665649.85-4.34n13.03--
9:57 PM705452.58-2.61n13.9--
8:57 PM715151.95-12.17wnw19.12--
7:57 PM705151.03-6.08sw13.9--
5:57 PM794052.59-11.3wsw16.51--
4:57 PM843452.58-8.69wsw14.77--
3:57 PM872748.94-6.95sw14.77--
2:57 PM853150.94-8.69s17.38--
1:57 PM862849.06-6.95sw16.51--
12:57 PM842847.36-6.95wnw14.77--
11:57 AM813046.62-6.08wsw16.51--
10:57 AM763445.59-6.95sw11.3--
9:57 AM733946.57-2.61sw6.95--
8:57 AM674645.53-6.08ese9.56--
7:57 AM596045.13-5.21nne12.17--
6:57 AM575942.81-6.08ese7.82--
5:57 AM585742.85-3.48ene6.08--
4:57 AM576143.68-5.21ese7.82--
3:57 AM586646.7-5.21e6.95--
2:57 AM596948.84-2.61ese5.21--
1:57 AM597852.15-2.61ne4.34--
12:57 AM598052.84-2.61ssw5.21--
High: 80ºf @4:57 PM    Low: 54ºf @5:57 AM     Approx. Precipitation / Rain Total: in.
Time (PDT)Temp. (ºf)Humidity (%)Dew Point (ºf)Barometer (inHG)Wind Speed (mph)Wind DirectionWind Gust (mph)1hr. Precip / Rain Total (in.)Snow Depth
11:57 PM598052.84-1.74wsw3.48--
10:57 PM607752.77-3.48n5.21--
9:57 PM627453.61-0.87n4.34--
8:57 PM646853.22-4.34nw6.08--
6:57 PM715352.99-7.82wsw12.17--
5:57 PM784152.37-6.95wsw17.38--
4:57 PM802338.85-12.17s19.99--
3:57 PM803045.76-13.9ssw22.59--
2:57 PM793347.42-14.77s24.33--
1:57 PM783749.6-15.64ssw24.33--
12:57 PM754753.38-14.77ssw21.72--
11:57 AM764452.49-11.3ssw17.38--
10:57 AM725253.4-2.61w7.82--
9:57 AM675449.8-2.61wsw6.08--
8:57 AM645447.02-0.87wnw4.34--
7:57 AM576846.54-3.48ese5.21--
6:57 AM557145.77-1.74nne5.21--
5:57 AM548148.3-2.61ssw2.61--
4:57 AM558048.94-1.74ene4.34--
3:57 AM558450.25-0.87sse4.34--
2:57 AM568150.25-1.74ene2.61--
1:57 AM568250.58-0.87ne3.48--
12:57 AM606849.41-1.74n3.48--
High: 80ºf @3:57 PM    Low: 54ºf @6:57 AM     Approx. Precipitation / Rain Total: in.
Time (PDT)Temp. (ºf)Humidity (%)Dew Point (ºf)Barometer (inHG)Wind Speed (mph)Wind DirectionWind Gust (mph)1hr. Precip / Rain Total (in.)Snow Depth
11:57 PM617251.9-0.87ese3.48--
10:57 PM607652.41-1.74ssw6.08--
9:57 PM636651.46-1.74n3.48--
7:57 PM666152.16-5.21sw7.82--
6:57 PM724951.78-5.21sw11.3--
5:57 PM792439.11-6.95ssw14.77--
3:57 PM803045.76-12.17sse18.25--
2:57 PM802843.94-10.43sse22.59--
1:57 PM774252.13-15.64s24.33--
12:57 PM744350.07-14.77s20.86--
11:57 AM715151.95-13.03s17.38--
10:57 AM734650.98-2.61w6.95--
9:57 AM665549.36-2.61wsw5.21--
8:57 AM636450.63-0.87ssw4.34--
7:57 AM556945.02-2.61ssw3.48--
6:57 AM547144.81---3.48--
4:57 AM557647.57-1.74sse4.34--
3:57 AM557948.61-2.61ene3.48--
1:57 AM578251.56-0.87e6.08--
12:57 AM568952.8-1.74e4.34--
High: 81ºf @2:57 PM    Low: 54ºf @5:57 AM     Approx. Precipitation / Rain Total: in.
Time (PDT)Temp. (ºf)Humidity (%)Dew Point (ºf)Barometer (inHG)Wind Speed (mph)Wind DirectionWind Gust (mph)1hr. Precip / Rain Total (in.)Snow Depth
11:57 PM578853.48-0.87ne5.21--
8:57 PM666453.47-1.74s5.21--
7:57 PM666453.47-3.48ssw10.43--
6:57 PM705553.08-7.82wsw15.64--
5:57 PM774050.81-12.17s19.12--
4:57 PM793347.42-13.03s21.72--
3:57 PM803751.36-15.64sse24.33--
2:57 PM813046.62-15.64sse21.72--
1:57 PM803045.76-14.77s25.2--
12:57 PM802944.86-13.9ssw20.86--
11:57 AM763647.1-9.56ssw14.77--
10:57 AM724046.34-3.48wsw6.08--
9:57 AM674343.76-1.74wsw4.34--
8:57 AM624238.64---2.61--
7:57 AM594235.94---4.34--
5:57 AM544533.14-3.48se4.34--
3:57 AM574938.03---2.61--
2:57 AM594135.33-1.74ese6.08--
1:57 AM604840.25-2.61ese5.21--
12:57 AM607351.32-2.61ese3.48--
High: 87ºf @2:57 PM    Low: 58ºf @4:57 AM     Approx. Precipitation / Rain Total: in.
Time (PDT)Temp. (ºf)Humidity (%)Dew Point (ºf)Barometer (inHG)Wind Speed (mph)Wind DirectionWind Gust (mph)1hr. Precip / Rain Total (in.)Snow Depth
11:57 PM617553.02-0.87w2.61--
10:57 PM636149.33-0.87w5.21--
9:57 PM656552.94-3.48n5.21--
8:57 PM666152.16-2.61wsw6.08--
7:57 PM705352.07-3.48wsw13.03--
5:57 PM831733.67-12.17s18.25--
4:57 PM861023.09-12.17s20.86--
3:57 PM861837.53-15.64sse23.46--
2:57 PM871635.36-13.9s20.86--
1:57 PM861837.53-13.9s19.99--
12:57 PM841937.28-15.64s21.72--
11:57 AM832037.77-7.82ssw15.64--
10:57 AM782539.31-3.48wsw6.08--
9:57 AM742535.94-1.74nw3.48--
8:57 AM672630.98---3.48--
7:57 AM632728.5---4.34--
6:57 AM593229.19-2.61ene3.48--
5:57 AM593128.41---6.08--
4:57 AM583228.31-6.08ese6.95--
3:57 AM613533.15-1.74n3.48--
2:57 AM623332.57-1.74nne3.48--
1:57 AM633434.19---3.48--
12:57 AM633736.32-0.87ene2.61--
High: 90ºf @2:57 PM    Low: 59ºf @6:57 AM     Approx. Precipitation / Rain Total: in.
Time (PDT)Temp. (ºf)Humidity (%)Dew Point (ºf)Barometer (inHG)Wind Speed (mph)Wind DirectionWind Gust (mph)1hr. Precip / Rain Total (in.)Snow Depth
11:57 PM654543.14-0.87ese2.61--
9:57 PM685048.66-1.74nw3.48--
8:57 PM714146.1-1.74nw8.69--
7:57 PM733342.18-6.08sw9.56--
6:57 PM792540.15-6.08sw17.38--
5:57 PM851328.64-11.3s14.77--
4:57 PM89922.84-9.56ssw21.72--
3:57 PM901230.55-13.9s20.86--
2:57 PM901026.11-13.03s19.99--
1:57 PM881024.6-14.77s20.86--
12:57 PM881229.01-13.9s19.99--
11:57 AM861532.95-12.17ssw16.51--
10:57 AM841021.58-1.74wsw5.21--
9:57 AM761423.36-2.61sw3.48--
8:57 AM711521.03---4.34--
7:57 AM651820.47-2.61e3.48--
6:57 AM591916.81-2.61e4.34--
5:57 AM592018-1.74e4.34--
4:57 AM651719.13-4.34ne5.21--
3:57 AM651820.47-2.61ssw5.21--
2:57 AM641920.92-2.61e5.21--
1:57 AM661821.29-0.87n2.61--
12:57 AM681924.21-0.87sse2.61--
High: 95ºf @1:57 PM    Low: 64ºf @6:57 AM     Approx. Precipitation / Rain Total: in.
Time (PDT)Temp. (ºf)Humidity (%)Dew Point (ºf)Barometer (inHG)Wind Speed (mph)Wind DirectionWind Gust (mph)1hr. Precip / Rain Total (in.)Snow Depth
11:57 PM691823.73---8.69--
10:57 PM701925.84-6.95ese7.82--
9:57 PM751727.23-5.21nne6.95--
8:57 PM762032.02-3.48n5.21--
7:57 PM792034.49-3.48w8.69--
6:57 PM841429.67-6.08wsw13.9--
5:57 PM891331.75-9.56w15.64--
4:57 PM94512.83-12.17s20.86--
3:57 PM94720.58-14.77sse22.59--
2:57 PM94926.56-13.9sse20.86--
1:57 PM95927.31-11.3s19.99--
12:57 PM931028.37-12.17s19.12--
11:57 AM901434.38-11.3ssw17.38--
10:57 AM881940.54-3.48w6.08--
9:57 AM822340.52-2.61sw4.34--
8:57 AM772336.35-0.87s2.61--
6:57 AM643031.94-3.48ese4.34--
3:57 AM682934.55-0.87ne2.61--
2:57 AM682934.55---6.95--
1:57 AM673135.36-5.21se6.08--
12:57 AM712634.38-4.34nne5.21--
High: 95ºf @2:57 PM    Low: 67ºf @4:57 AM     Approx. Precipitation / Rain Total: in.
Time (PDT)Temp. (ºf)Humidity (%)Dew Point (ºf)Barometer (inHG)Wind Speed (mph)Wind DirectionWind Gust (mph)1hr. Precip / Rain Total (in.)Snow Depth
11:57 PM733342.18-0.87ne3.48--
10:57 PM723945.67---5.21--
9:57 PM733745.17-4.34wnw6.08--
8:57 PM772740.44-3.48nw8.69--
7:57 PM802237.72-4.34wsw9.56--
6:57 PM842241.04-5.21wsw12.17--
5:57 PM921740.9-6.08sw18.25--
4:57 PM931028.37-13.03s23.46--
3:57 PM941539.27-15.64sse22.59--
2:57 PM951540.06-14.77s24.33--
1:57 PM941640.93-15.64sse22.59--
11:57 AM931130.71-11.3sse15.64--
10:57 AM901840.77-2.61sw6.08--
9:57 AM822340.52-1.74w4.34--
8:57 AM762739.59-1.74sw3.48--
7:57 AM752940.57-0.87ese5.21--
6:57 AM693338.69-1.74n4.34--
5:57 AM683438.58-0.87ene5.21--
4:57 AM673437.7-0.87ene4.34--
3:57 AM703238.78-3.48nne4.34--
2:57 AM713239.65-2.61ne3.48--
1:57 AM703339.56-0.87e3.48--
12:57 AM723643.57---3.48--
High: 96ºf @2:57 PM    Low: 70ºf @5:57 AM     Approx. Precipitation / Rain Total: in.
Time (PDT)Temp. (ºf)Humidity (%)Dew Point (ºf)Barometer (inHG)Wind Speed (mph)Wind DirectionWind Gust (mph)1hr. Precip / Rain Total (in.)Snow Depth
11:57 PM743141.43-3.48ese4.34--
10:57 PM743746.06-0.87nnw4.34--
9:57 PM764150.58-2.61w4.34--
8:57 PM783548.11-2.61wsw6.08--
7:57 PM822643.71-5.21nw11.3--
6:57 PM852444.14-7.82wnw15.64--
5:57 PM921740.9-8.69w19.12--
4:57 PM951540.06-12.17s19.99--
3:57 PM951438.29-13.9wsw22.59--
2:57 PM961540.85-13.03wsw21.72--
1:57 PM962048.4-12.17wsw20.86--
12:57 PM952452.49-6.95ssw14.77--
11:57 AM942754.87-3.48w7.82--
10:57 AM893154.4-2.61w6.95--
9:57 AM824055.27-2.61wsw5.21--
8:57 AM774554.01---3.48--
7:57 AM754753.38-1.74ese4.34--
6:57 AM705653.57-0.87wnw4.34--
5:57 AM705653.57-0.87ne3.48--
4:57 AM715554.01---4.34--
3:57 AM715554.01-4.34ese5.21--
2:57 AM735254.32-2.61ese4.34--
1:57 AM735053.25-1.74ene3.48--
12:57 AM735153.79-1.74ese3.48--
High: 95ºf @2:57 PM    Low: 70ºf @5:57 AM     Approx. Precipitation / Rain Total: in.
Time (PDT)Temp. (ºf)Humidity (%)Dew Point (ºf)Barometer (inHG)Wind Speed (mph)Wind DirectionWind Gust (mph)1hr. Precip / Rain Total (in.)Snow Depth
9:57 PM774554.01-4.34w6.95--
8:57 PM794354.57-5.21wnw9.56--
7:57 PM814054.38-6.95wnw13.03--
6:57 PM853554.25-7.82w13.9--
5:57 PM913055.22-6.08wsw18.25--
4:57 PM922955.14-13.9sse23.46--
3:57 PM942754.87-14.77sse23.46--
2:57 PM952755.72-15.64sse26.94--
1:57 PM952755.72-13.9sse22.59--
12:57 PM952654.68-12.17sse18.25--
11:57 AM943158.7-6.08nw9.56--
10:57 AM893658.54-3.48wsw6.95--
9:57 AM834458.81-2.61wnw6.08--
7:57 AM735756.85-2.61nne4.34--
6:57 AM725856.4-3.48e5.21--
5:57 AM706256.37-2.61ssw5.21--
4:57 AM725856.4-4.34nne5.21--
3:57 AM745255.24-3.48ese12.17--
2:57 AM725554.94-6.08n9.56--
1:57 AM745255.24-1.74n4.34--
12:57 AM754853.96-3.48sw6.08--
High: 97ºf @3:57 PM    Low: 72ºf @1:57 AM     Approx. Precipitation / Rain Total: in.
Time (PDT)Temp. (ºf)Humidity (%)Dew Point (ºf)Barometer (inHG)Wind Speed (mph)Wind DirectionWind Gust (mph)1hr. Precip / Rain Total (in.)Snow Depth
11:57 PM764653.71-1.74nnw6.08--
10:57 PM774554.01-4.34ssw6.08--
8:57 PM834056.16-4.34sw9.56--
6:57 PM903457.82-5.21ssw13.03--
5:57 PM963059.5-6.95sw14.77--
4:57 PM962958.55-10.43sse16.51--
3:57 PM972959.41-9.56sse16.51--
2:57 PM953159.57-10.43sse20.86--
1:57 PM943259.59-14.77sse22.59--
12:57 PM943461.3-13.9ssw22.59--
11:57 AM933561.25-14.77s24.33--
10:57 AM923560.38-5.21wsw9.56--
9:57 AM854259.3-2.61sw4.34--
8:57 AM834257.51---3.48--
7:57 AM784756.11---4.34--
6:57 AM735455.36-0.87sse4.34--
5:57 AM735656.36-2.61ne4.34--
4:57 AM735656.36-3.48e6.95--
3:57 AM726358.7-4.34ese5.21--
2:57 AM726358.7-0.87se2.61--
1:57 AM726459.14-3.48nne4.34--
12:57 AM726258.25-3.48n4.34--
High: 96ºf @3:57 PM    Low: 68ºf @6:57 AM     Approx. Precipitation / Rain Total: in.
Time (PDT)Temp. (ºf)Humidity (%)Dew Point (ºf)Barometer (inHG)Wind Speed (mph)Wind DirectionWind Gust (mph)1hr. Precip / Rain Total (in.)Snow Depth
11:57 PM726358.7-3.48sw8.69--
10:57 PM755859.2-4.34wnw6.95--
9:57 PM805361.31-0.87wsw5.21--
8:57 PM814960.01-3.48nnw7.82--
7:57 PM834660.06-7.82sw10.43--
6:57 PM883859.17-4.34wsw12.17--
5:57 PM922955.14-7.82w12.17--
4:57 PM952856.73-5.21w12.17--
3:57 PM962958.55-6.95wsw11.3--
2:57 PM952755.72-6.08s14.77--
1:57 PM923358.72-8.69ssw13.03--
12:57 PM893860.05-6.95sw17.38--
11:57 AM854259.3-11.3ssw15.64--
10:57 AM834660.06-7.82ssw16.51--
9:57 AM785560.5-10.43ssw16.51--
8:57 AM746159.68-3.48sw5.21--
7:57 AM706758.53-2.61nne3.48--
6:57 AM687660.14-0.87nne4.34--
4:57 AM687760.51-2.61e4.34--
2:57 AM687760.51-2.61n5.21--
12:57 AM707360.94-2.61ne4.34--
High: 94ºf @3:57 PM    Low: 66ºf @6:57 AM     Approx. Precipitation / Rain Total: in.
Time (PDT)Temp. (ºf)Humidity (%)Dew Point (ºf)Barometer (inHG)Wind Speed (mph)Wind DirectionWind Gust (mph)1hr. Precip / Rain Total (in.)Snow Depth
11:57 PM707260.55-3.48w6.08--
10:57 PM716960.3-3.48wnw6.08--
9:57 PM736861.8-3.48wnw5.21--
8:57 PM756461.98-4.34w10.43--
6:57 PM835062.41-8.69wsw12.17--
5:57 PM913559.5-7.82sw16.51--
4:57 PM933157.84-9.56s16.51--
3:57 PM943259.59-10.43s17.38--
2:57 PM923358.72-12.17ssw17.38--
1:57 PM933359.59-6.08ssw13.03--
12:57 PM923459.56-6.08ssw13.03--
11:57 AM873858.28-6.95ssw12.17--
10:57 AM844459.71-2.61wnw6.95--
9:57 AM785661.01-2.61wsw6.08--
8:57 AM736660.96-1.74nw3.48--
7:57 AM707160.15-2.61se4.34--
6:57 AM668059.65-2.61ne4.34--
5:57 AM667959.29-3.48ese6.08--
4:57 AM668461.02-4.34ese6.95--
3:57 AM678562.33-5.21nne6.08--
2:57 AM678361.66-0.87nne2.61--
1:57 AM678462-3.48s4.34--
12:57 AM678462---6.95--
High: 100ºf @2:57 PM    Low: 68ºf @11:57 PM     Approx. Precipitation / Rain Total: in.
Time (PDT)Temp. (ºf)Humidity (%)Dew Point (ºf)Barometer (inHG)Wind Speed (mph)Wind DirectionWind Gust (mph)1hr. Precip / Rain Total (in.)Snow Depth
11:57 PM688763.98-4.34sw6.08--
10:57 PM698162.92-1.74sw6.08--
9:57 PM717763.42-5.21s15.64--
8:57 PM736861.8-11.3ssw18.25--
7:57 PM775559.58-9.56sw19.12--
6:57 PM815161.14-13.03s18.25--
5:57 PM884060.61-9.56s15.64--
4:57 PM943259.59-10.43s19.12--
3:57 PM992354.66-9.56ssw20.86--
2:57 PM1002051.66-10.43s20.86--
1:57 PM981847.22-11.3s17.38--
12:57 PM962048.4-10.43ssw14.77--
11:57 AM932450.82-7.82ssw13.9--
10:57 AM912145.6-2.61wsw5.21--
9:57 AM862343.86-1.74sw4.34--
8:57 AM802439.95-2.61ssw5.21--
7:57 AM752334.68-2.61nw5.21--
6:57 AM732535.09-1.74sse6.08--
5:57 AM722837.1-6.08se8.69--
4:57 AM732535.09-3.48ese5.21--
3:57 AM752132.41---3.48--
2:57 AM752334.68-1.74sse4.34--
1:57 AM772134.06-2.61e4.34--
12:57 AM782134.89-1.74sw6.08--
High: 105ºf @1:57 PM    Low: 68ºf @3:57 AM     Approx. Precipitation / Rain Total: in.
Time (PDT)Temp. (ºf)Humidity (%)Dew Point (ºf)Barometer (inHG)Wind Speed (mph)Wind DirectionWind Gust (mph)1hr. Precip / Rain Total (in.)Snow Depth
11:57 PM801832.67-1.74s5.21--
10:57 PM821732.87-3.48ese6.08--
9:57 PM851633.76-1.74ese3.48--
8:57 PM861736.09-3.48sw8.69--
7:57 PM891229.78-4.34nw11.3--
6:57 PM93925.82-7.82wnw13.9--
5:57 PM991135.27-7.82w17.38--
4:57 PM1011239-12.17w21.72--
3:57 PM1021545.57-12.17w22.59--
2:57 PM1031546.36-12.17w19.99--
1:57 PM1051037.38-5.21wsw14.77--
12:57 PM1021137.54-6.08sw9.56--
11:57 AM1001136.03-2.61w6.95--
10:57 AM931334.86-1.74wsw6.95--
9:57 AM871533.74-0.87sw3.48--
8:57 AM801832.67---3.48--
7:57 AM722129.92-3.48ese5.21--
6:57 AM702128.27-2.61n5.21--
5:57 AM682126.61-3.48ene5.21--
3:57 AM682126.61-3.48ene6.95--
2:57 AM711926.66-1.74n3.48--
1:57 AM712027.91-1.74e6.95--
12:57 AM731826.99-3.48ne6.08--
High: 97ºf @1:57 PM    Low: 65ºf @6:57 AM     Approx. Precipitation / Rain Total: in.
Time (PDT)Temp. (ºf)Humidity (%)Dew Point (ºf)Barometer (inHG)Wind Speed (mph)Wind DirectionWind Gust (mph)1hr. Precip / Rain Total (in.)Snow Depth
11:57 PM741929.12-1.74n6.08--
10:57 PM771931.57---3.48--
9:57 PM782134.89-1.74ese5.21--
8:57 PM821326.3-1.74nnw9.56--
7:57 PM821631.37-6.08nnw9.56--
6:57 PM881229.01-6.08w15.64--
5:57 PM93925.82-9.56wsw17.38--
4:57 PM94823.74-9.56w19.12--
3:57 PM95824.47-11.3w19.99--
2:57 PM96825.21-8.69w16.51--
1:57 PM97928.79-7.82sw16.51--
12:57 PM951029.88-6.08w13.03--
11:57 AM931028.37-6.95wnw13.03--
10:57 AM891535.32-1.74wnw4.34--
9:57 AM812137.37-2.61ssw5.21--
8:57 AM762133.23-0.87ssw6.08--
7:57 AM682833.67-5.21ese6.08--
6:57 AM653133.63-0.87sw4.34--
4:57 AM653234.42-3.48e6.08--
2:57 AM673538.44---4.34--
1:57 AM683740.75-0.87ene4.34--
12:57 AM683841.44-2.61ene4.34--
High: 93ºf @2:57 PM    Low: 59ºf @3:57 AM     Approx. Precipitation / Rain Total: in.
Time (PDT)Temp. (ºf)Humidity (%)Dew Point (ºf)Barometer (inHG)Wind Speed (mph)Wind DirectionWind Gust (mph)1hr. Precip / Rain Total (in.)Snow Depth
11:57 PM695451.65---2.61--
10:57 PM705754.05-1.74nne3.48--
9:57 PM695954.06-2.61n6.08--
8:57 PM715554.01-5.21sw7.82--
7:57 PM744752.47-5.21wsw7.82--
6:57 PM823047.48-4.34wsw13.03--
5:57 PM872243.52-8.69w14.77--
4:57 PM911841.57-7.82w15.64--
3:57 PM911942.98-10.43w18.25--
2:57 PM931741.7-7.82w13.9--
1:57 PM912246.83-8.69s16.51--
12:57 PM882446.65-7.82ssw13.03--
10:57 AM804053.48-3.48wnw6.08--
9:57 AM735656.36-3.48sw5.21--
7:57 AM637454.58-0.87nne3.48--
6:57 AM598353.84-2.61n4.34--
5:57 AM598654.82-2.61e3.48--
4:57 AM598554.49-1.74ne2.61--
3:57 AM598755.13-0.87s3.48--
2:57 AM608655.8-3.48e3.48--
1:57 AM628557.43-4.34e6.08--
12:57 AM618857.42-1.74ne2.61--
High: 84ºf @3:57 PM    Low: 58ºf @5:57 AM     Approx. Precipitation / Rain Total: in.
Time (PDT)Temp. (ºf)Humidity (%)Dew Point (ºf)Barometer (inHG)Wind Speed (mph)Wind DirectionWind Gust (mph)1hr. Precip / Rain Total (in.)Snow Depth
11:57 PM618857.42-1.74wsw4.34--
10:57 PM628457.11-2.61nw4.34--
9:57 PM647957.35-2.61nw6.95--
7:57 PM696556.73-6.08wsw11.3--
6:57 PM755457.21-6.08w13.03--
5:57 PM794857.61-7.82w17.38--
3:57 PM843855.63-6.95w13.03--
2:57 PM824155.95-6.95sw13.9--
1:57 PM814557.63-6.08s15.64--
12:57 PM795058.75-6.08sw12.17--
11:57 AM755758.72-4.34w9.56--
10:57 AM716458.2-4.34nw8.69--
9:57 AM687057.84-3.48w6.95--
8:57 AM647957.35-1.74wnw4.34--
7:57 AM608756.12-0.87sw3.48--
6:57 AM598855.45-0.87sw3.48--
5:57 AM589155.39-3.48n4.34--
4:57 AM599356.98-1.74ene2.61--
3:57 AM589355.99-0.87ese1.74--
2:57 AM599156.37-0.87wnw3.48--
1:57 AM608856.43-1.74nw2.61--
12:57 AM608856.43---4.34--
High: 76ºf @4:57 PM    Low: 61ºf @12:57 AM     Approx. Precipitation / Rain Total: in.
Time (PDT)Temp. (ºf)Humidity (%)Dew Point (ºf)Barometer (inHG)Wind Speed (mph)Wind DirectionWind Gust (mph)1hr. Precip / Rain Total (in.)Snow Depth
11:57 PM618556.45-3.48nw6.08--
10:57 PM628457.11-3.48wnw9.56--
9:57 PM638056.73-5.21wsw8.69--
8:57 PM657556.88-6.08sw13.03--
7:57 PM687057.84-9.56wsw13.9--
6:57 PM725956.87-10.43ssw16.51--
5:57 PM755557.72-10.43s18.25--
4:57 PM765357.61-11.3sse17.38--
3:57 PM755457.21-11.3sse19.99--
2:57 PM735857.33-12.17sse19.12--
1:57 PM716659.06-13.03sse21.72--
12:57 PM706959.35-13.03sse20.86--
11:57 AM687359.01-12.17s19.12--
10:57 AM657857.97-7.82ssw13.03--
9:57 AM648158.05-5.21ssw7.82--
8:57 AM648459.06-4.34ssw7.82--
7:57 AM638959.7-5.21ssw7.82--
6:57 AM629059.03-3.48sw7.82--
5:57 AM638859.39-2.61sw6.08--
4:57 AM628858.4-1.74wsw4.34--
3:57 AM629059.03-1.74sw5.21--
2:57 AM629159.34-4.34sw11.3--
1:57 AM619358.96-7.82ssw12.17--
12:57 AM619459.26-7.82ssw15.64--
High: 84ºf @12:57 PM    Low: 61ºf @11:57 PM     Approx. Precipitation / Rain Total: in.
Time (PDT)Temp. (ºf)Humidity (%)Dew Point (ºf)Barometer (inHG)Wind Speed (mph)Wind DirectionWind Gust (mph)1hr. Precip / Rain Total (in.)Snow Depth
11:57 PM619058.04-10.43s16.51--
10:57 PM628657.76-6.95ssw15.64--
9:57 PM648358.73-9.56ssw19.12--
8:57 PM667959.29-13.03ssw21.72--
7:57 PM687459.39-12.17ssw16.51--
6:57 PM726358.7-6.95sse13.03--
5:57 PM755959.68-3.48sw8.69--
4:57 PM755959.68-4.34w15.64--
3:57 PM775358.54-6.08wsw14.77--
2:57 PM794354.57-10.43s15.64--
1:57 PM833350.9-5.21w11.3--
12:57 PM843049.2-5.21w9.56--
11:57 AM794555.82-3.48wsw9.56--
10:57 AM746059.22-1.74wnw9.56--
9:57 AM677759.54-6.08nnw10.43--
8:57 AM648459.06-6.95ssw14.77--
7:57 AM658058.67-0.87wnw7.82--
6:57 AM638458.08-4.34ssw5.21--
5:57 AM648258.39---3.48--
3:57 AM657857.97-2.61s3.48--
2:57 AM658058.67-1.74sw6.95--
1:57 AM667758.58-2.61sw8.69--
12:57 AM667658.21-3.48ssw7.82--
High: 82ºf @6:57 PM    Low: 68ºf @10:57 PM     Approx. Precipitation / Rain Total: in.
Time (PDT)Temp. (ºf)Humidity (%)Dew Point (ºf)Barometer (inHG)Wind Speed (mph)Wind DirectionWind Gust (mph)1hr. Precip / Rain Total (in.)Snow Depth
11:57 PM687258.63-3.48ssw8.69--
10:57 PM687057.84-4.34ssw10.43--
9:57 PM696757.58-6.08sw13.9--
7:57 PM755758.72-5.21sw9.56--
6:57 PM824357.27-4.34wsw13.9--
Past Weather Disclaimer Note regarding "Approx. Precipitation / Rain Total"

Currently

Clear 75°F
29.91in
Barometer
39%
Humidity
North 0.0mph
Wind
Clear

Past Weather Nearby

More Local Information

Bookmark and Share

Go Ad Free - Become a Member